Time;durP1;ratioP1;P1;durP2;ratioP2;P2;SDS_P1;SDS_P2;PMS_P1;PMS_P2;Temp;Humidity;BMP_temperature;BMP_pressure;BME280_temperature;BME280_humidity;BME280_pressure;Samples;Min_cycle;Max_cycle;Signal;HPM_P1;HPM_P2
2020/12/16 00:00:16;;;;;;;23.77;15.90;;;;;;;;;;5018278;28;20025;-77
2020/12/16 00:02:42;;;;;;;23.87;15.53;;;;;;;;;;5015956;28;21952;-78
2020/12/16 00:05:09;;;;;;;25.33;16.33;;;;;;;;;;5013461;28;20539;-78
2020/12/16 00:07:35;;;;;;;25.73;16.33;;;;;;;;;;5016989;28;20060;-77
2020/12/16 00:10:02;;;;;;;22.03;15.97;;;;;;;;;;5018451;28;20065;-78
2020/12/16 00:12:29;;;;;;;22.07;15.10;;;;;;;;;;5015690;28;20030;-78
2020/12/16 00:14:56;;;;;;;27.07;16.30;;;;;;;;;;5010802;28;20022;-79
2020/12/16 00:17:22;;;;;;;24.87;15.13;;;;;;;;;;5018300;28;20083;-78
2020/12/16 00:19:48;;;;;;;26.20;16.30;;;;;;;;;;5018749;28;20489;-78
2020/12/16 00:22:14;;;;;;;22.90;15.20;;;;;;;;;;5019089;28;20037;-78
2020/12/16 00:24:41;;;;;;;23.47;15.70;;;;;;;;;;5020611;28;20034;-77
2020/12/16 00:27:10;;;;;;;24.47;16.60;;;;;;;;;;5020521;28;20117;-78
2020/12/16 00:29:37;;;;;;;22.77;16.37;;;;;;;;;;5017229;28;20448;-78
2020/12/16 00:32:04;;;;;;;25.50;15.50;;;;;;;;;;5014758;28;20021;-77
2020/12/16 00:34:30;;;;;;;25.50;16.47;;;;;;;;;;5027493;28;20040;-78
2020/12/16 00:36:57;;;;;;;24.47;15.80;;;;;;;;;;5027824;28;20046;-77
2020/12/16 00:39:23;;;;;;;20.80;15.33;;;;;;;;;;5019378;28;20076;-78
2020/12/16 00:41:49;;;;;;;24.17;16.83;;;;;;;;;;5019032;28;20033;-78
2020/12/16 00:44:15;;;;;;;23.20;16.30;;;;;;;;;;5016935;28;20029;-78
2020/12/16 00:46:41;;;;;;;23.67;15.90;;;;;;;;;;5008741;28;20034;-78
2020/12/16 00:49:07;;;;;;;27.57;17.43;;;;;;;;;;5016650;28;20092;-78
2020/12/16 00:51:33;;;;;;;24.37;16.57;;;;;;;;;;5024005;28;20544;-77
2020/12/16 00:54:00;;;;;;;22.20;16.33;;;;;;;;;;5021491;28;20022;-78
2020/12/16 00:56:26;;;;;;;24.33;16.37;;;;;;;;;;5012267;28;20029;-78
2020/12/16 00:58:52;;;;;;;25.77;17.30;;;;;;;;;;5015813;28;20061;-78
2020/12/16 01:01:18;;;;;;;25.70;15.93;;;;;;;;;;5017103;28;20022;-77
2020/12/16 01:03:44;;;;;;;22.30;16.37;;;;;;;;;;5015906;28;20042;-78
2020/12/16 01:06:11;;;;;;;26.33;17.30;;;;;;;;;;5017414;28;20033;-77
2020/12/16 01:08:39;;;;;;;25.80;17.33;;;;;;;;;;5016709;28;20041;-79
2020/12/16 01:11:05;;;;;;;26.87;17.30;;;;;;;;;;5019672;28;20041;-78
2020/12/16 01:13:31;;;;;;;24.80;16.57;;;;;;;;;;5019653;28;20029;-78
2020/12/16 01:15:57;;;;;;;23.43;15.60;;;;;;;;;;5016999;28;20040;-78
2020/12/16 01:18:23;;;;;;;24.73;15.37;;;;;;;;;;5018087;28;20056;-78
2020/12/16 01:20:49;;;;;;;22.47;16.30;;;;;;;;;;5001722;28;20065;-78
2020/12/16 01:23:15;;;;;;;26.87;16.70;;;;;;;;;;5017227;28;20045;-78
2020/12/16 01:25:41;;;;;;;24.37;16.20;;;;;;;;;;5018511;28;20040;-78
2020/12/16 01:28:08;;;;;;;24.90;15.97;;;;;;;;;;5016410;28;20030;-78
2020/12/16 01:30:34;;;;;;;26.03;16.03;;;;;;;;;;5013322;28;20090;-78
2020/12/16 01:33:00;;;;;;;26.00;16.83;;;;;;;;;;4998033;28;20054;-78
2020/12/16 01:35:26;;;;;;;27.40;17.63;;;;;;;;;;5009954;28;20033;-78
2020/12/16 01:37:56;;;;;;;22.47;15.63;;;;;;;;;;5012554;28;20040;-78
2020/12/16 01:40:22;;;;;;;24.37;17.50;;;;;;;;;;5008085;28;20125;-78
2020/12/16 01:42:49;;;;;;;26.37;17.20;;;;;;;;;;5017106;28;20034;-78
2020/12/16 01:45:16;;;;;;;20.13;15.20;;;;;;;;;;5017226;28;20037;-77
2020/12/16 01:47:43;;;;;;;28.60;17.57;;;;;;;;;;5014063;28;20084;-78
2020/12/16 01:50:10;;;;;;;22.10;15.70;;;;;;;;;;5017632;28;20026;-78
2020/12/16 01:52:37;;;;;;;27.00;17.17;;;;;;;;;;5021577;28;20061;-79
2020/12/16 01:55:04;;;;;;;23.43;15.23;;;;;;;;;;5022382;28;20048;-78
2020/12/16 01:57:32;;;;;;;22.00;15.57;;;;;;;;;;5019847;28;20157;-78
2020/12/16 02:00:00;;;;;;;24.33;16.97;;;;;;;;;;5018780;28;20076;-78
2020/12/16 02:02:29;;;;;;;25.17;16.23;;;;;;;;;;5020396;28;20054;-79
2020/12/16 02:04:58;;;;;;;22.33;16.00;;;;;;;;;;5017083;28;20575;-78
2020/12/16 02:07:26;;;;;;;25.50;15.97;;;;;;;;;;5012732;28;20794;-78
2020/12/16 02:09:52;;;;;;;27.53;16.77;;;;;;;;;;5020598;28;20034;-78
2020/12/16 02:12:28;;;;;;;22.57;15.37;;;;;;;;;;5018729;28;20025;-78
2020/12/16 02:14:54;;;;;;;24.37;15.37;;;;;;;;;;5022246;28;20022;-78
2020/12/16 02:17:21;;;;;;;23.87;15.70;;;;;;;;;;5019574;28;20034;-78
2020/12/16 02:19:49;;;;;;;23.63;15.33;;;;;;;;;;5020751;28;20041;-77
2020/12/16 02:22:15;;;;;;;22.13;15.83;;;;;;;;;;5020626;28;20057;-77
2020/12/16 02:24:42;;;;;;;24.57;16.27;;;;;;;;;;5023954;28;20029;-78
2020/12/16 02:27:09;;;;;;;22.47;15.13;;;;;;;;;;5030032;28;20041;-78
2020/12/16 02:29:36;;;;;;;26.73;15.30;;;;;;;;;;5022809;28;20018;-78
2020/12/16 02:32:02;;;;;;;22.70;14.53;;;;;;;;;;5016105;28;20038;-78
2020/12/16 02:34:29;;;;;;;24.57;15.17;;;;;;;;;;5006116;28;20033;-78
2020/12/16 02:36:55;;;;;;;25.93;15.47;;;;;;;;;;5020279;28;20052;-78
2020/12/16 02:39:21;;;;;;;23.40;13.73;;;;;;;;;;5021862;28;20036;-78
2020/12/16 02:41:47;;;;;;;21.87;14.33;;;;;;;;;;5006045;28;20248;-78
2020/12/16 02:44:15;;;;;;;22.83;15.30;;;;;;;;;;5017930;28;20053;-78
2020/12/16 02:46:41;;;;;;;24.13;16.37;;;;;;;;;;5022326;28;20053;-78
2020/12/16 02:49:07;;;;;;;23.87;15.90;;;;;;;;;;5016594;28;20022;-78
2020/12/16 02:51:33;;;;;;;23.73;15.70;;;;;;;;;;5022842;28;20090;-78
2020/12/16 02:53:59;;;;;;;24.20;15.57;;;;;;;;;;5026072;28;20041;-78
2020/12/16 02:56:25;;;;;;;26.50;16.73;;;;;;;;;;5016567;28;20022;-78
2020/12/16 02:58:51;;;;;;;25.20;16.80;;;;;;;;;;5022986;28;20041;-78
2020/12/16 03:01:17;;;;;;;24.50;16.00;;;;;;;;;;5025329;28;20123;-79
2020/12/16 03:03:44;;;;;;;24.37;16.70;;;;;;;;;;5032984;28;20025;-78
2020/12/16 03:06:13;;;;;;;32.30;16.53;;;;;;;;;;5035201;28;20555;-78
2020/12/16 03:08:40;;;;;;;26.90;17.80;;;;;;;;;;5023966;28;20033;-78
2020/12/16 03:11:06;;;;;;;23.63;17.23;;;;;;;;;;5021998;28;20030;-78
2020/12/16 03:13:32;;;;;;;26.27;17.00;;;;;;;;;;5024163;28;20408;-78
2020/12/16 03:15:58;;;;;;;23.27;16.60;;;;;;;;;;5013844;28;20821;-76
2020/12/16 03:18:24;;;;;;;24.13;15.13;;;;;;;;;;5016887;28;20027;-77
2020/12/16 03:20:50;;;;;;;25.13;16.63;;;;;;;;;;5031488;28;20026;-78
2020/12/16 03:23:16;;;;;;;23.47;16.47;;;;;;;;;;5012314;28;20517;-78
2020/12/16 03:25:43;;;;;;;23.27;16.10;;;;;;;;;;5032650;28;20088;-78
2020/12/16 03:28:09;;;;;;;24.07;16.43;;;;;;;;;;5020957;28;20034;-77
2020/12/16 03:30:35;;;;;;;28.47;17.00;;;;;;;;;;5021836;28;20554;-78
2020/12/16 03:33:03;;;;;;;28.17;17.77;;;;;;;;;;5007245;28;20129;-78
2020/12/16 03:35:29;;;;;;;26.13;16.77;;;;;;;;;;5005560;28;20029;-78
2020/12/16 03:37:55;;;;;;;28.60;17.90;;;;;;;;;;5019822;28;20061;-78
2020/12/16 03:40:21;;;;;;;29.97;18.23;;;;;;;;;;5019826;28;20493;-78
2020/12/16 03:42:47;;;;;;;29.07;17.60;;;;;;;;;;5001276;28;20811;-79
2020/12/16 03:45:13;;;;;;;27.33;17.73;;;;;;;;;;5020005;28;20029;-78
2020/12/16 03:47:39;;;;;;;30.10;17.70;;;;;;;;;;5020125;28;20033;-78
2020/12/16 03:50:06;;;;;;;27.97;18.37;;;;;;;;;;5018593;28;20017;-78
2020/12/16 03:52:32;;;;;;;31.03;19.10;;;;;;;;;;5001330;28;20034;-78
2020/12/16 03:54:58;;;;;;;29.90;18.30;;;;;;;;;;5011214;28;20029;-78
2020/12/16 03:57:24;;;;;;;31.40;19.10;;;;;;;;;;5021631;28;20022;-78
2020/12/16 03:59:50;;;;;;;32.67;20.53;;;;;;;;;;5019175;28;20037;-78
2020/12/16 04:02:16;;;;;;;32.20;20.67;;;;;;;;;;5019357;28;20092;-78
2020/12/16 04:04:42;;;;;;;29.03;19.63;;;;;;;;;;5024388;28;20030;-79
2020/12/16 04:07:08;;;;;;;31.07;19.67;;;;;;;;;;5017926;28;20098;-78
2020/12/16 04:09:34;;;;;;;34.30;20.57;;;;;;;;;;5020118;28;20033;-78
2020/12/16 04:12:00;;;;;;;33.10;21.13;;;;;;;;;;5017828;28;20083;-79
2020/12/16 04:14:26;;;;;;;36.50;20.77;;;;;;;;;;5016656;28;20022;-79
2020/12/16 04:16:56;;;;;;;31.50;19.47;;;;;;;;;;5018917;28;20036;-78
2020/12/16 04:19:22;;;;;;;39.47;22.50;;;;;;;;;;5019631;28;20030;-78
2020/12/16 04:21:49;;;;;;;38.27;23.20;;;;;;;;;;5012646;28;20030;-78
2020/12/16 04:24:15;;;;;;;41.83;24.47;;;;;;;;;;5017784;28;20026;-78
2020/12/16 04:26:41;;;;;;;40.27;24.83;;;;;;;;;;5016982;28;20025;-78
2020/12/16 04:29:07;;;;;;;40.03;23.87;;;;;;;;;;5017459;28;20033;-78
2020/12/16 04:31:35;;;;;;;50.50;26.33;;;;;;;;;;5017773;28;20113;-78
2020/12/16 04:34:01;;;;;;;41.90;25.60;;;;;;;;;;5018662;28;20032;-78
2020/12/16 04:36:27;;;;;;;45.90;27.23;;;;;;;;;;5013424;28;20282;-77
2020/12/16 04:38:53;;;;;;;38.87;24.57;;;;;;;;;;5005096;28;20034;-77
2020/12/16 04:41:19;;;;;;;45.80;26.07;;;;;;;;;;5019300;28;20034;-77
2020/12/16 04:43:46;;;;;;;42.97;26.23;;;;;;;;;;5019466;28;20033;-78
2020/12/16 04:46:15;;;;;;;48.90;26.57;;;;;;;;;;5017239;28;20049;-78
2020/12/16 04:48:45;;;;;;;49.97;27.07;;;;;;;;;;5019012;28;20026;-79
2020/12/16 04:51:11;;;;;;;44.03;26.23;;;;;;;;;;5020032;28;20033;-77
2020/12/16 04:53:38;;;;;;;40.87;25.53;;;;;;;;;;5019812;28;21035;-77
2020/12/16 04:56:05;;;;;;;40.07;25.33;;;;;;;;;;5026739;28;20030;-79
2020/12/16 04:58:31;;;;;;;36.37;23.53;;;;;;;;;;5019973;28;20038;-78
2020/12/16 05:00:57;;;;;;;37.17;24.03;;;;;;;;;;5019548;28;20026;-78
2020/12/16 05:03:23;;;;;;;37.80;22.87;;;;;;;;;;5018932;28;20036;-78
2020/12/16 05:05:49;;;;;;;35.47;22.73;;;;;;;;;;5009438;28;20030;-78
2020/12/16 05:08:16;;;;;;;37.90;22.10;;;;;;;;;;5021783;28;20057;-78
2020/12/16 05:10:43;;;;;;;32.53;22.23;;;;;;;;;;5020943;28;20057;-77
2020/12/16 05:13:11;;;;;;;35.27;21.73;;;;;;;;;;5017825;28;20017;-77
2020/12/16 05:15:37;;;;;;;33.17;20.80;;;;;;;;;;4997961;28;20033;-78
2020/12/16 05:18:10;;;;;;;33.97;21.33;;;;;;;;;;5015545;28;20048;-78
2020/12/16 05:20:40;;;;;;;38.73;23.53;;;;;;;;;;5019379;28;20385;-78
2020/12/16 05:23:07;;;;;;;31.67;21.47;;;;;;;;;;5019698;28;20097;-78
2020/12/16 05:25:33;;;;;;;36.23;20.60;;;;;;;;;;5012392;28;20030;-78
2020/12/16 05:28:00;;;;;;;28.93;19.10;;;;;;;;;;5018676;28;20476;-78
2020/12/16 05:30:26;;;;;;;29.47;20.10;;;;;;;;;;5018867;28;20137;-77
2020/12/16 05:32:53;;;;;;;28.90;18.90;;;;;;;;;;4998084;28;20037;-78
2020/12/16 05:35:23;;;;;;;26.80;18.50;;;;;;;;;;5017450;28;20025;-78
2020/12/16 05:37:49;;;;;;;30.07;18.60;;;;;;;;;;5022152;28;20025;-78
2020/12/16 05:40:17;;;;;;;28.73;20.00;;;;;;;;;;5023736;28;20037;-77
2020/12/16 05:42:46;;;;;;;30.60;18.90;;;;;;;;;;5014160;28;20036;-77
2020/12/16 05:45:21;;;;;;;28.23;18.20;;;;;;;;;;4997823;28;20031;-78
2020/12/16 05:48:14;;;;;;;28.73;18.33;;;;;;;;;;5011010;28;20030;-78
2020/12/16 05:51:00;;;;;;;28.97;19.57;;;;;;;;;;5015168;28;20054;-78
2020/12/16 05:53:30;;;;;;;29.20;18.73;;;;;;;;;;5032970;28;20484;-77
2020/12/16 05:55:56;;;;;;;26.47;18.47;;;;;;;;;;5015407;28;20029;-77
2020/12/16 05:58:23;;;;;;;27.73;18.23;;;;;;;;;;5016454;28;20034;-78
2020/12/16 06:00:56;;;;;;;31.20;20.20;;;;;;;;;;5017715;28;20026;-78
2020/12/16 06:03:33;;;;;;;32.13;19.63;;;;;;;;;;5013010;28;20030;-78
2020/12/16 06:06:06;;;;;;;28.57;19.37;;;;;;;;;;5015944;28;20481;-78
2020/12/16 06:08:36;;;;;;;27.10;18.37;;;;;;;;;;5016372;28;20064;-78
2020/12/16 06:11:04;;;;;;;26.50;19.37;;;;;;;;;;5001322;28;20145;-78
2020/12/16 06:13:30;;;;;;;27.70;19.00;;;;;;;;;;5029178;28;20029;-78
2020/12/16 06:16:00;;;;;;;27.27;17.73;;;;;;;;;;5029381;28;20026;-78
2020/12/16 06:18:27;;;;;;;26.27;18.17;;;;;;;;;;5014768;28;20112;-78
2020/12/16 06:20:54;;;;;;;26.03;17.40;;;;;;;;;;5010838;28;20029;-78
2020/12/16 06:23:31;;;;;;;23.00;17.53;;;;;;;;;;5013862;28;20124;-78
2020/12/16 06:25:58;;;;;;;31.03;18.93;;;;;;;;;;5005105;28;20061;-77
2020/12/16 06:28:25;;;;;;;26.03;16.90;;;;;;;;;;5015769;28;20064;-79
2020/12/16 06:30:55;;;;;;;30.13;17.73;;;;;;;;;;5018566;28;20195;-78
2020/12/16 06:33:28;;;;;;;27.90;17.80;;;;;;;;;;5016185;28;20053;-78
2020/12/16 06:36:02;;;;;;;27.63;19.63;;;;;;;;;;5011196;28;20026;-78
2020/12/16 06:38:29;;;;;;;29.93;18.47;;;;;;;;;;5020785;28;20037;-78
2020/12/16 06:40:56;;;;;;;26.23;17.77;;;;;;;;;;5021779;28;20112;-78
2020/12/16 06:43:31;;;;;;;28.27;17.70;;;;;;;;;;5015946;28;20101;-77
2020/12/16 06:45:58;;;;;;;31.57;19.90;;;;;;;;;;5016499;28;20026;-77
2020/12/16 06:48:33;;;;;;;29.73;18.43;;;;;;;;;;5017681;28;20030;-78
2020/12/16 06:51:33;;;;;;;27.87;18.47;;;;;;;;;;5015832;28;20032;-78
2020/12/16 06:54:04;;;;;;;29.50;19.33;;;;;;;;;;5001774;28;20037;-78
2020/12/16 06:56:30;;;;;;;30.50;16.57;;;;;;;;;;5019107;28;20037;-79
2020/12/16 06:58:56;;;;;;;33.20;21.80;;;;;;;;;;5017116;28;20026;-77
2020/12/16 07:01:23;;;;;;;33.47;21.23;;;;;;;;;;5017952;28;20511;-77
2020/12/16 07:03:49;;;;;;;33.20;20.40;;;;;;;;;;5005924;28;20030;-79
2020/12/16 07:06:41;;;;;;;31.53;19.63;;;;;;;;;;5010994;28;20097;-77
2020/12/16 07:09:14;;;;;;;29.20;19.27;;;;;;;;;;5011845;28;20047;-78
2020/12/16 07:11:45;;;;;;;32.05;19.10;;;;;;;;;;4995937;28;20464;-76
2020/12/16 07:14:12;;;;;;;28.87;20.30;;;;;;;;;;5000419;28;20026;-78
2020/12/16 07:16:38;;;;;;;30.00;20.20;;;;;;;;;;5011132;28;20022;-77
2020/12/16 07:19:04;;;;;;;30.60;19.10;;;;;;;;;;5017409;28;20088;-78
2020/12/16 07:21:31;;;;;;;27.20;19.23;;;;;;;;;;5019633;28;20030;-79
2020/12/16 07:24:14;;;;;;;27.27;17.87;;;;;;;;;;5022956;28;20022;-78
2020/12/16 07:26:43;;;;;;;30.77;19.33;;;;;;;;;;5017840;28;20026;-77
2020/12/16 07:29:18;;;;;;;27.67;16.90;;;;;;;;;;5018883;28;20030;-76
2020/12/16 07:31:58;;;;;;;27.87;19.97;;;;;;;;;;5022865;28;20036;-78
2020/12/16 07:34:24;;;;;;;25.63;17.07;;;;;;;;;;5013743;28;20032;-77
2020/12/16 07:36:55;;;;;;;28.73;17.33;;;;;;;;;;5017849;28;20084;-77
2020/12/16 07:39:22;;;;;;;23.60;15.50;;;;;;;;;;5033583;28;20239;-77
2020/12/16 07:41:48;;;;;;;28.20;18.17;;;;;;;;;;5019028;28;20041;-77
2020/12/16 07:44:18;;;;;;;24.00;15.67;;;;;;;;;;5015602;28;20033;-78
2020/12/16 07:46:44;;;;;;;24.13;16.77;;;;;;;;;;5012877;28;20054;-77
2020/12/16 07:49:11;;;;;;;23.20;15.50;;;;;;;;;;5010031;28;20516;-77
2020/12/16 07:51:37;;;;;;;23.33;15.90;;;;;;;;;;5031660;28;20025;-78
2020/12/16 07:54:03;;;;;;;22.73;15.43;;;;;;;;;;5014451;28;20026;-76
2020/12/16 07:56:29;;;;;;;22.63;14.37;;;;;;;;;;5011051;28;20440;-77
2020/12/16 07:58:56;;;;;;;26.37;16.90;;;;;;;;;;5006430;28;20113;-76
2020/12/16 08:01:22;;;;;;;24.67;15.20;;;;;;;;;;5007624;28;20030;-77
2020/12/16 08:03:49;;;;;;;26.13;15.33;;;;;;;;;;5007585;28;20029;-76
2020/12/16 08:06:15;;;;;;;20.17;13.57;;;;;;;;;;5011967;28;20041;-75
2020/12/16 08:08:48;;;;;;;25.30;15.23;;;;;;;;;;5013901;28;20069;-77
2020/12/16 08:11:14;;;;;;;;;;;;;;;;;;5026350;28;20211;-77
2020/12/16 08:13:40;;;;;;;21.70;14.87;;;;;;;;;;5010173;28;19985;-77
2020/12/16 08:16:07;;;;;;;23.10;15.77;;;;;;;;;;5010375;28;20026;-77
2020/12/16 08:18:33;;;;;;;19.90;14.07;;;;;;;;;;5011831;28;20053;-78
2020/12/16 08:20:59;;;;;;;24.67;14.87;;;;;;;;;;5014474;28;20036;-78
2020/12/16 08:23:25;;;;;;;23.00;14.53;;;;;;;;;;5014722;28;21333;-77
2020/12/16 08:25:52;;;;;;;23.37;15.53;;;;;;;;;;5010609;28;20509;-76
2020/12/16 08:28:25;;;;;;;28.60;16.63;;;;;;;;;;5009546;28;20037;-77
2020/12/16 08:30:52;;;;;;;25.03;15.80;;;;;;;;;;5011947;28;20388;-77
2020/12/16 08:33:19;;;;;;;24.43;15.53;;;;;;;;;;5010373;28;20026;-77
2020/12/16 08:35:48;;;;;;;21.53;14.77;;;;;;;;;;5009472;28;20030;-78
2020/12/16 08:38:18;;;;;;;21.40;14.70;;;;;;;;;;5006303;28;20392;-76
2020/12/16 08:40:46;;;;;;;24.00;14.07;;;;;;;;;;5015919;28;20498;-77
2020/12/16 08:43:20;;;;;;;22.20;14.77;;;;;;;;;;5022283;28;20052;-77
2020/12/16 08:45:46;;;;;;;21.52;14.55;;;;;;;;;;5014173;28;20029;-77
2020/12/16 08:48:12;;;;;;;23.00;14.43;;;;;;;;;;5009959;28;20057;-77
2020/12/16 08:50:39;;;;;;;19.50;12.50;;;;;;;;;;5008315;28;20029;-76
2020/12/16 08:53:05;;;;;;;20.63;14.20;;;;;;;;;;5008796;28;20021;-76
2020/12/16 08:55:37;;;;;;;22.37;15.57;;;;;;;;;;5010446;28;20044;-76
2020/12/16 08:58:04;;;;;;;23.13;14.67;;;;;;;;;;5021159;28;20029;-76
2020/12/16 09:00:34;;;;;;;20.77;15.10;;;;;;;;;;5019199;28;20037;-78
2020/12/16 09:03:02;;;;;;;21.57;14.87;;;;;;;;;;5029671;28;20540;-76
2020/12/16 09:05:28;;;;;;;26.03;16.17;;;;;;;;;;5026132;28;20047;-77
2020/12/16 09:08:11;;;;;;;23.57;17.90;;;;;;;;;;5022680;28;20025;-78
2020/12/16 09:10:41;;;;;;;24.53;16.00;;;;;;;;;;5027553;28;20022;-76
2020/12/16 09:13:26;;;;;;;23.90;15.07;;;;;;;;;;5027664;28;20017;-77
2020/12/16 09:15:52;;;;;;;25.50;15.80;;;;;;;;;;5023618;28;20014;-77
2020/12/16 09:18:27;;;;;;;20.97;14.87;;;;;;;;;;5016840;28;20017;-77
2020/12/16 09:20:54;;;;;;;19.80;14.27;;;;;;;;;;5020759;28;20112;-77
2020/12/16 09:23:24;;;;;;;22.27;15.87;;;;;;;;;;5033309;28;20033;-77
2020/12/16 09:25:51;;;;;;;20.33;14.67;;;;;;;;;;5014593;28;20121;-78
2020/12/16 09:28:18;;;;;;;21.57;14.47;;;;;;;;;;5018325;28;20101;-77
2020/12/16 09:30:44;;;;;;;20.47;13.93;;;;;;;;;;5014246;28;20064;-77
2020/12/16 09:33:11;;;;;;;18.27;13.27;;;;;;;;;;5017597;28;20036;-77
2020/12/16 09:35:38;;;;;;;20.77;14.90;;;;;;;;;;5028751;28;20129;-77
2020/12/16 09:38:13;;;;;;;20.90;13.23;;;;;;;;;;5029919;28;20029;-78
2020/12/16 09:40:39;;;;;;;19.77;13.43;;;;;;;;;;5026456;28;20045;-77
2020/12/16 09:43:09;;;;;;;21.13;14.23;;;;;;;;;;5024719;28;20026;-77
2020/12/16 09:45:39;;;;;;;18.10;12.17;;;;;;;;;;5022795;28;20104;-77
2020/12/16 09:48:07;;;;;;;17.57;12.73;;;;;;;;;;5020122;28;20087;-76
2020/12/16 09:50:35;;;;;;;19.73;12.40;;;;;;;;;;5027619;28;20072;-77
2020/12/16 09:53:02;;;;;;;18.43;12.90;;;;;;;;;;5020723;28;20033;-76
2020/12/16 09:55:29;;;;;;;19.37;13.70;;;;;;;;;;5021241;28;20034;-78
2020/12/16 09:58:02;;;;;;;19.47;13.37;;;;;;;;;;5026311;28;20063;-78
2020/12/16 10:00:29;;;;;;;22.15;14.63;;;;;;;;;;5032612;28;20071;-78
2020/12/16 10:02:59;;;;;;;20.10;13.13;;;;;;;;;;5031931;28;20022;-77
2020/12/16 10:05:25;;;;;;;22.53;15.23;;;;;;;;;;5025259;28;20025;-78
2020/12/16 10:07:52;;;;;;;20.60;14.13;;;;;;;;;;5025925;28;20025;-78
2020/12/16 10:10:18;;;;;;;20.73;14.63;;;;;;;;;;5019443;28;20040;-77
2020/12/16 10:12:45;;;;;;;20.70;14.50;;;;;;;;;;5028547;28;20053;-77
2020/12/16 10:15:11;;;;;;;20.20;14.23;;;;;;;;;;5029106;28;20029;-77
2020/12/16 10:17:38;;;;;;;22.23;14.37;;;;;;;;;;5012781;28;20164;-77
2020/12/16 10:20:05;;;;;;;22.17;14.80;;;;;;;;;;5010208;28;20034;-78
2020/12/16 10:22:31;;;;;;;20.60;12.93;;;;;;;;;;5016620;28;20034;-78
2020/12/16 10:24:57;;;;;;;20.80;14.13;;;;;;;;;;5014116;28;20056;-77
2020/12/16 10:27:23;;;;;;;18.77;12.57;;;;;;;;;;5018890;28;20026;-78
2020/12/16 10:29:49;;;;;;;19.03;12.47;;;;;;;;;;5013138;28;20041;-77
2020/12/16 10:32:16;;;;;;;16.50;12.43;;;;;;;;;;5026949;28;20036;-78
2020/12/16 10:34:43;;;;;;;16.90;11.63;;;;;;;;;;5028476;28;20022;-78
2020/12/16 10:37:09;;;;;;;16.97;11.60;;;;;;;;;;5019291;28;20040;-78
2020/12/16 10:39:35;;;;;;;15.80;10.67;;;;;;;;;;5020005;28;20040;-79
2020/12/16 10:42:01;;;;;;;18.33;12.40;;;;;;;;;;5021500;28;20149;-78
2020/12/16 10:44:29;;;;;;;16.57;10.40;;;;;;;;;;5013052;28;20508;-78
2020/12/16 10:46:55;;;;;;;12.97;9.93;;;;;;;;;;5012815;28;20061;-77
2020/12/16 10:49:26;;;;;;;15.83;10.27;;;;;;;;;;5010736;28;20029;-77
2020/12/16 10:51:52;;;;;;;14.47;10.07;;;;;;;;;;5010126;28;20637;-77
2020/12/16 10:54:19;;;;;;;15.20;11.33;;;;;;;;;;5012783;28;20026;-78
2020/12/16 10:56:50;;;;;;;15.53;10.47;;;;;;;;;;5017280;28;20334;-78
2020/12/16 10:59:18;;;;;;;14.47;11.00;;;;;;;;;;5032795;28;20064;-77
2020/12/16 11:01:44;;;;;;;15.20;10.70;;;;;;;;;;5022652;28;20524;-78
2020/12/16 11:04:10;;;;;;;13.80;9.83;;;;;;;;;;5015136;28;20129;-77
2020/12/16 11:06:37;;;;;;;14.33;9.60;;;;;;;;;;5032910;28;20033;-79
2020/12/16 11:09:04;;;;;;;15.80;9.67;;;;;;;;;;5037773;28;20029;-78
2020/12/16 11:11:30;;;;;;;12.55;9.40;;;;;;;;;;5023878;28;20052;-79
2020/12/16 11:13:56;;;;;;;13.13;9.10;;;;;;;;;;5034648;28;20014;-78
2020/12/16 11:16:29;;;;;;;13.05;9.30;;;;;;;;;;5019268;28;20127;-79
2020/12/16 11:18:55;;;;;;;;;;;;;;;;;;5015120;28;20045;-77
2020/12/16 11:21:21;;;;;;;13.13;9.13;;;;;;;;;;5014806;28;19909;-79
2020/12/16 11:23:48;;;;;;;14.98;9.68;;;;;;;;;;5018478;28;20038;-78
2020/12/16 11:26:14;;;;;;;12.77;9.02;;;;;;;;;;5025339;28;20021;-79
2020/12/16 11:28:40;;;;;;;13.27;8.50;;;;;;;;;;5009273;28;20061;-80
2020/12/16 11:31:06;;;;;;;13.55;9.27;;;;;;;;;;5016640;28;20034;-78
2020/12/16 11:33:32;;;;;;;11.98;9.02;;;;;;;;;;5034148;28;20029;-78
2020/12/16 11:35:58;;;;;;;13.00;10.13;;;;;;;;;;5022824;28;20065;-78
2020/12/16 11:38:24;;;;;;;13.05;9.82;;;;;;;;;;5021926;28;20169;-77
2020/12/16 11:40:51;;;;;;;11.73;9.15;;;;;;;;;;5020065;28;20040;-79
2020/12/16 11:43:17;;;;;;;13.52;9.77;;;;;;;;;;5022309;28;20025;-78
2020/12/16 11:45:44;;;;;;;10.90;8.73;;;;;;;;;;5019378;28;20029;-79
2020/12/16 11:48:10;;;;;;;14.82;10.32;;;;;;;;;;5022514;28;20105;-79
2020/12/16 11:50:36;;;;;;;23.73;15.05;;;;;;;;;;5023868;28;20109;-79
2020/12/16 11:53:03;;;;;;;11.85;9.35;;;;;;;;;;5027228;28;20022;-79
2020/12/16 11:55:29;;;;;;;14.52;9.95;;;;;;;;;;5022069;28;20555;-79
2020/12/16 11:57:55;;;;;;;11.25;8.95;;;;;;;;;;5026754;28;20044;-78
2020/12/16 12:00:24;;;;;;;11.73;8.73;;;;;;;;;;5018632;28;20083;-79
2020/12/16 12:02:52;;;;;;;9.85;7.60;;;;;;;;;;5022180;28;20803;-78
2020/12/16 12:05:18;;;;;;;11.30;7.15;;;;;;;;;;5025818;28;20084;-79
2020/12/16 12:07:44;;;;;;;10.40;8.10;;;;;;;;;;5018007;28;20619;-77
2020/12/16 12:10:11;;;;;;;13.48;8.73;;;;;;;;;;5012903;28;20040;-78
2020/12/16 12:12:37;;;;;;;11.48;8.82;;;;;;;;;;5014762;28;20032;-78
2020/12/16 12:15:03;;;;;;;13.13;9.30;;;;;;;;;;5028360;28;20030;-78
2020/12/16 12:17:29;;;;;;;11.63;8.68;;;;;;;;;;5023779;28;20033;-78
2020/12/16 12:19:55;;;;;;;10.95;8.63;;;;;;;;;;5037438;28;20029;-78
2020/12/16 12:22:22;;;;;;;12.55;9.45;;;;;;;;;;5038385;28;20038;-78
2020/12/16 12:24:49;;;;;;;11.88;9.48;;;;;;;;;;5038359;28;20022;-79
2020/12/16 12:27:15;;;;;;;12.00;9.63;;;;;;;;;;5038867;28;20033;-79
2020/12/16 12:29:41;;;;;;;12.43;10.20;;;;;;;;;;5037874;28;20052;-78
2020/12/16 12:32:07;;;;;;;12.68;9.90;;;;;;;;;;5032683;28;20041;-78
2020/12/16 12:34:33;;;;;;;11.88;9.27;;;;;;;;;;5032434;28;20054;-77
2020/12/16 12:37:01;;;;;;;11.45;9.80;;;;;;;;;;5044239;28;20037;-78
2020/12/16 12:39:27;;;;;;;11.68;9.95;;;;;;;;;;5038527;28;20025;-78
2020/12/16 12:41:54;;;;;;;10.93;9.55;;;;;;;;;;5033657;28;20026;-79
2020/12/16 12:44:20;;;;;;;12.35;10.20;;;;;;;;;;5032864;28;20029;-79
2020/12/16 12:46:50;;;;;;;10.07;8.88;;;;;;;;;;5025160;28;20033;-78
2020/12/16 12:49:17;;;;;;;11.48;9.50;;;;;;;;;;5011109;28;20014;-79
2020/12/16 12:51:49;;;;;;;12.05;9.55;;;;;;;;;;5048047;28;20473;-78
2020/12/16 12:54:15;;;;;;;11.55;9.13;;;;;;;;;;5011241;28;20026;-79
2020/12/16 12:56:41;;;;;;;12.93;8.90;;;;;;;;;;5023731;28;20069;-78
2020/12/16 12:59:07;;;;;;;12.30;8.73;;;;;;;;;;5016899;28;20136;-78
2020/12/16 13:01:33;;;;;;;12.82;10.52;;;;;;;;;;5015431;28;20037;-79
2020/12/16 13:03:59;;;;;;;12.98;9.00;;;;;;;;;;5013084;28;20080;-78
2020/12/16 13:06:25;;;;;;;12.25;10.20;;;;;;;;;;5011434;28;20018;-79
2020/12/16 13:08:54;;;;;;;11.55;9.32;;;;;;;;;;5019287;28;20104;-78
2020/12/16 13:11:21;;;;;;;12.05;8.77;;;;;;;;;;5023236;28;20022;-77
2020/12/16 13:13:47;;;;;;;14.52;8.55;;;;;;;;;;5012625;28;20025;-77
2020/12/16 13:16:14;;;;;;;11.85;8.82;;;;;;;;;;5010229;28;20044;-77
2020/12/16 13:18:40;;;;;;;9.98;8.52;;;;;;;;;;5011222;28;20029;-78
2020/12/16 13:21:06;;;;;;;10.77;8.25;;;;;;;;;;5022828;28;20021;-79
2020/12/16 13:23:34;;;;;;;10.75;8.13;;;;;;;;;;5013072;28;20443;-80
2020/12/16 13:26:01;;;;;;;11.73;8.25;;;;;;;;;;5013855;28;20037;-79
2020/12/16 13:28:27;;;;;;;9.73;7.50;;;;;;;;;;5019714;28;20045;-78
2020/12/16 13:30:53;;;;;;;10.20;7.45;;;;;;;;;;5025322;28;20484;-79
2020/12/16 13:33:19;;;;;;;9.45;7.55;;;;;;;;;;5013672;28;20064;-78
2020/12/16 13:35:47;;;;;;;13.07;8.60;;;;;;;;;;5024912;28;20025;-78
2020/12/16 13:38:13;;;;;;;9.98;7.50;;;;;;;;;;5023450;28;20029;-79
2020/12/16 13:40:40;;;;;;;10.70;7.57;;;;;;;;;;5018950;28;20096;-78
2020/12/16 13:43:06;;;;;;;10.65;8.38;;;;;;;;;;5024699;28;20018;-78
2020/12/16 13:45:32;;;;;;;13.35;9.18;;;;;;;;;;5019684;28;20026;-78
2020/12/16 13:47:58;;;;;;;13.88;8.88;;;;;;;;;;5024038;28;20501;-78
2020/12/16 13:50:24;;;;;;;14.35;9.57;;;;;;;;;;5021341;28;20088;-78
2020/12/16 13:52:51;;;;;;;14.65;10.20;;;;;;;;;;5015389;28;20030;-78
2020/12/16 13:55:19;;;;;;;11.48;8.68;;;;;;;;;;5020189;28;20017;-78
2020/12/16 13:57:45;;;;;;;13.50;8.60;;;;;;;;;;5026919;28;20029;-78
2020/12/16 14:00:11;;;;;;;12.02;7.90;;;;;;;;;;5032215;28;20025;-79
2020/12/16 14:02:37;;;;;;;11.48;8.05;;;;;;;;;;5006491;28;20053;-78
2020/12/16 14:05:04;;;;;;;11.20;7.43;;;;;;;;;;5017116;28;20026;-77
2020/12/16 14:07:30;;;;;;;12.48;8.40;;;;;;;;;;5012207;28;20121;-77
2020/12/16 14:09:56;;;;;;;11.75;7.53;;;;;;;;;;5022114;28;20140;-78
2020/12/16 14:12:22;;;;;;;10.98;6.88;;;;;;;;;;5014211;28;20098;-78
2020/12/16 14:14:48;;;;;;;12.00;8.80;;;;;;;;;;5017758;28;20022;-79
2020/12/16 14:17:14;;;;;;;12.35;7.43;;;;;;;;;;5034847;28;20061;-79
2020/12/16 14:19:40;;;;;;;14.25;8.00;;;;;;;;;;5026912;28;20049;-77
2020/12/16 14:22:07;;;;;;;13.77;7.72;;;;;;;;;;5025309;28;20045;-78